sensor_id;sensor_type;location;lat;lon;timestamp;P1;durP1;ratioP1;P2;durP2;ratioP2
5801;SDS011;2927;49.366;8.530;2022-12-07T00:00:57;20.93;;;8.33;;
5801;SDS011;2927;49.366;8.530;2022-12-07T00:03:30;12.60;;;6.90;;
5801;SDS011;2927;49.366;8.530;2022-12-07T00:05:57;19.73;;;7.87;;
5801;SDS011;2927;49.366;8.530;2022-12-07T00:08:23;15.83;;;6.67;;
5801;SDS011;2927;49.366;8.530;2022-12-07T00:10:49;13.87;;;7.50;;
5801;SDS011;2927;49.366;8.530;2022-12-07T00:13:14;14.50;;;6.80;;
5801;SDS011;2927;49.366;8.530;2022-12-07T00:15:40;13.33;;;7.57;;
5801;SDS011;2927;49.366;8.530;2022-12-07T00:18:05;12.80;;;6.67;;
5801;SDS011;2927;49.366;8.530;2022-12-07T00:20:31;19.90;;;6.43;;
5801;SDS011;2927;49.366;8.530;2022-12-07T00:22:56;15.13;;;7.10;;
5801;SDS011;2927;49.366;8.530;2022-12-07T00:25:22;17.13;;;7.43;;
5801;SDS011;2927;49.366;8.530;2022-12-07T00:27:47;14.10;;;7.70;;
5801;SDS011;2927;49.366;8.530;2022-12-07T00:30:13;17.27;;;8.50;;
5801;SDS011;2927;49.366;8.530;2022-12-07T00:32:39;13.67;;;7.67;;
5801;SDS011;2927;49.366;8.530;2022-12-07T00:35:04;10.50;;;6.50;;
5801;SDS011;2927;49.366;8.530;2022-12-07T00:37:30;13.83;;;6.83;;
5801;SDS011;2927;49.366;8.530;2022-12-07T00:39:55;16.20;;;7.03;;
5801;SDS011;2927;49.366;8.530;2022-12-07T00:42:21;15.90;;;7.10;;
5801;SDS011;2927;49.366;8.530;2022-12-07T00:44:46;14.00;;;6.37;;
5801;SDS011;2927;49.366;8.530;2022-12-07T00:47:12;11.53;;;7.23;;
5801;SDS011;2927;49.366;8.530;2022-12-07T00:49:37;10.73;;;6.13;;
5801;SDS011;2927;49.366;8.530;2022-12-07T00:52:03;18.43;;;7.83;;
5801;SDS011;2927;49.366;8.530;2022-12-07T00:54:28;14.80;;;7.37;;
5801;SDS011;2927;49.366;8.530;2022-12-07T00:56:54;12.30;;;6.63;;
5801;SDS011;2927;49.366;8.530;2022-12-07T00:59:19;11.77;;;7.00;;
5801;SDS011;2927;49.366;8.530;2022-12-07T01:01:45;16.40;;;6.43;;
5801;SDS011;2927;49.366;8.530;2022-12-07T01:04:11;12.50;;;6.80;;
5801;SDS011;2927;49.366;8.530;2022-12-07T01:06:36;11.83;;;6.23;;
5801;SDS011;2927;49.366;8.530;2022-12-07T01:09:03;15.00;;;7.60;;
5801;SDS011;2927;49.366;8.530;2022-12-07T01:11:30;14.60;;;7.63;;
5801;SDS011;2927;49.366;8.530;2022-12-07T01:13:57;14.03;;;7.93;;
5801;SDS011;2927;49.366;8.530;2022-12-07T01:16:24;15.80;;;8.70;;
5801;SDS011;2927;49.366;8.530;2022-12-07T01:18:51;12.50;;;7.37;;
5801;SDS011;2927;49.366;8.530;2022-12-07T01:21:22;12.70;;;7.27;;
5801;SDS011;2927;49.366;8.530;2022-12-07T01:23:49;17.10;;;6.97;;
5801;SDS011;2927;49.366;8.530;2022-12-07T01:26:17;13.60;;;7.23;;
5801;SDS011;2927;49.366;8.530;2022-12-07T01:28:44;11.80;;;6.33;;
5801;SDS011;2927;49.366;8.530;2022-12-07T01:31:11;17.77;;;7.30;;
5801;SDS011;2927;49.366;8.530;2022-12-07T01:33:42;15.63;;;6.43;;
5801;SDS011;2927;49.366;8.530;2022-12-07T01:36:21;11.97;;;6.40;;
5801;SDS011;2927;49.366;8.530;2022-12-07T01:38:50;12.20;;;6.67;;
5801;SDS011;2927;49.366;8.530;2022-12-07T01:41:19;15.77;;;7.30;;
5801;SDS011;2927;49.366;8.530;2022-12-07T01:46:54;13.27;;;6.70;;
5801;SDS011;2927;49.366;8.530;2022-12-07T01:49:26;11.10;;;6.80;;
5801;SDS011;2927;49.366;8.530;2022-12-07T01:52:13;12.90;;;6.10;;
5801;SDS011;2927;49.366;8.530;2022-12-07T01:54:45;11.20;;;6.83;;
5801;SDS011;2927;49.366;8.530;2022-12-07T01:57:13;10.87;;;6.20;;
5801;SDS011;2927;49.366;8.530;2022-12-07T01:59:40;11.87;;;6.17;;
5801;SDS011;2927;49.366;8.530;2022-12-07T02:02:10;11.93;;;5.73;;
5801;SDS011;2927;49.366;8.530;2022-12-07T02:04:42;10.83;;;5.90;;
5801;SDS011;2927;49.366;8.530;2022-12-07T02:07:08;10.73;;;6.13;;
5801;SDS011;2927;49.366;8.530;2022-12-07T02:09:34;11.87;;;6.07;;
5801;SDS011;2927;49.366;8.530;2022-12-07T02:11:59;9.83;;;5.93;;
5801;SDS011;2927;49.366;8.530;2022-12-07T02:14:25;11.93;;;6.60;;
5801;SDS011;2927;49.366;8.530;2022-12-07T02:17:03;10.47;;;5.60;;
5801;SDS011;2927;49.366;8.530;2022-12-07T02:31:14;13.90;;;6.70;;
5801;SDS011;2927;49.366;8.530;2022-12-07T02:33:45;11.57;;;6.60;;
5801;SDS011;2927;49.366;8.530;2022-12-07T02:38:50;8.43;;;5.70;;
5801;SDS011;2927;49.366;8.530;2022-12-07T02:41:27;11.97;;;6.50;;
5801;SDS011;2927;49.366;8.530;2022-12-07T02:43:59;12.00;;;6.87;;
5801;SDS011;2927;49.366;8.530;2022-12-07T02:46:29;11.03;;;5.93;;
5801;SDS011;2927;49.366;8.530;2022-12-07T02:48:58;17.13;;;7.43;;
5801;SDS011;2927;49.366;8.530;2022-12-07T02:51:24;15.20;;;7.53;;
5801;SDS011;2927;49.366;8.530;2022-12-07T02:53:50;16.80;;;7.00;;
5801;SDS011;2927;49.366;8.530;2022-12-07T03:18:15;14.40;;;7.10;;
5801;SDS011;2927;49.366;8.530;2022-12-07T03:20:44;12.13;;;6.63;;
5801;SDS011;2927;49.366;8.530;2022-12-07T03:23:13;15.90;;;7.23;;
5801;SDS011;2927;49.366;8.530;2022-12-07T03:25:44;20.03;;;8.13;;
5801;SDS011;2927;49.366;8.530;2022-12-07T03:28:14;16.47;;;8.10;;
5801;SDS011;2927;49.366;8.530;2022-12-07T03:30:51;17.40;;;8.03;;
5801;SDS011;2927;49.366;8.530;2022-12-07T03:33:39;16.13;;;7.73;;
5801;SDS011;2927;49.366;8.530;2022-12-07T03:38:45;16.03;;;7.27;;
5801;SDS011;2927;49.366;8.530;2022-12-07T03:41:33;17.10;;;8.60;;
5801;SDS011;2927;49.366;8.530;2022-12-07T03:43:59;22.37;;;10.27;;
5801;SDS011;2927;49.366;8.530;2022-12-07T03:46:37;15.97;;;8.70;;
5801;SDS011;2927;49.366;8.530;2022-12-07T03:52:23;12.17;;;6.57;;
5801;SDS011;2927;49.366;8.530;2022-12-07T03:55:12;15.60;;;7.43;;
5801;SDS011;2927;49.366;8.530;2022-12-07T03:57:42;12.10;;;6.90;;
5801;SDS011;2927;49.366;8.530;2022-12-07T04:00:12;16.17;;;7.33;;
5801;SDS011;2927;49.366;8.530;2022-12-07T04:02:38;20.67;;;7.77;;
5801;SDS011;2927;49.366;8.530;2022-12-07T04:05:05;14.20;;;7.00;;
5801;SDS011;2927;49.366;8.530;2022-12-07T04:07:31;14.83;;;7.60;;
5801;SDS011;2927;49.366;8.530;2022-12-07T04:09:56;17.30;;;8.37;;
5801;SDS011;2927;49.366;8.530;2022-12-07T04:12:22;16.60;;;9.37;;
5801;SDS011;2927;49.366;8.530;2022-12-07T04:14:48;15.43;;;7.60;;
5801;SDS011;2927;49.366;8.530;2022-12-07T04:17:14;10.80;;;6.87;;
5801;SDS011;2927;49.366;8.530;2022-12-07T04:19:39;11.83;;;7.47;;
5801;SDS011;2927;49.366;8.530;2022-12-07T04:22:05;16.23;;;7.90;;
5801;SDS011;2927;49.366;8.530;2022-12-07T04:24:31;13.20;;;7.60;;
5801;SDS011;2927;49.366;8.530;2022-12-07T04:26:57;14.70;;;7.27;;
5801;SDS011;2927;49.366;8.530;2022-12-07T04:29:23;14.13;;;8.40;;
5801;SDS011;2927;49.366;8.530;2022-12-07T04:31:49;14.87;;;8.07;;
5801;SDS011;2927;49.366;8.530;2022-12-07T04:34:15;15.63;;;7.47;;
5801;SDS011;2927;49.366;8.530;2022-12-07T04:36:41;14.40;;;7.20;;
5801;SDS011;2927;49.366;8.530;2022-12-07T04:39:08;13.10;;;6.77;;
5801;SDS011;2927;49.366;8.530;2022-12-07T04:41:43;11.10;;;6.37;;
5801;SDS011;2927;49.366;8.530;2022-12-07T04:44:09;13.07;;;7.50;;
5801;SDS011;2927;49.366;8.530;2022-12-07T04:46:35;11.40;;;7.13;;
5801;SDS011;2927;49.366;8.530;2022-12-07T04:49:01;11.10;;;6.57;;
5801;SDS011;2927;49.366;8.530;2022-12-07T04:51:27;10.00;;;6.53;;
5801;SDS011;2927;49.366;8.530;2022-12-07T04:53:54;11.43;;;6.37;;
5801;SDS011;2927;49.366;8.530;2022-12-07T04:56:20;12.47;;;6.73;;
5801;SDS011;2927;49.366;8.530;2022-12-07T04:58:47;11.40;;;6.77;;
5801;SDS011;2927;49.366;8.530;2022-12-07T05:01:14;12.00;;;6.50;;
5801;SDS011;2927;49.366;8.530;2022-12-07T05:03:40;9.07;;;5.93;;
5801;SDS011;2927;49.366;8.530;2022-12-07T05:06:06;10.37;;;6.23;;
5801;SDS011;2927;49.366;8.530;2022-12-07T05:08:33;15.13;;;6.87;;
5801;SDS011;2927;49.366;8.530;2022-12-07T05:10:59;18.93;;;7.00;;
5801;SDS011;2927;49.366;8.530;2022-12-07T05:13:25;12.73;;;6.63;;
5801;SDS011;2927;49.366;8.530;2022-12-07T05:15:51;12.53;;;6.23;;
5801;SDS011;2927;49.366;8.530;2022-12-07T05:18:17;13.53;;;7.23;;
5801;SDS011;2927;49.366;8.530;2022-12-07T05:20:43;12.27;;;6.73;;
5801;SDS011;2927;49.366;8.530;2022-12-07T05:23:09;10.80;;;6.27;;
5801;SDS011;2927;49.366;8.530;2022-12-07T05:25:35;9.60;;;6.13;;
5801;SDS011;2927;49.366;8.530;2022-12-07T05:28:01;12.83;;;6.87;;
5801;SDS011;2927;49.366;8.530;2022-12-07T05:30:27;13.67;;;6.57;;
5801;SDS011;2927;49.366;8.530;2022-12-07T05:32:52;12.37;;;5.77;;
5801;SDS011;2927;49.366;8.530;2022-12-07T05:35:18;14.00;;;6.50;;
5801;SDS011;2927;49.366;8.530;2022-12-07T05:37:47;12.90;;;6.77;;
5801;SDS011;2927;49.366;8.530;2022-12-07T05:40:13;20.70;;;6.93;;
5801;SDS011;2927;49.366;8.530;2022-12-07T05:42:39;10.63;;;7.07;;
5801;SDS011;2927;49.366;8.530;2022-12-07T05:45:06;10.67;;;5.73;;
5801;SDS011;2927;49.366;8.530;2022-12-07T05:47:32;11.67;;;5.57;;
5801;SDS011;2927;49.366;8.530;2022-12-07T05:49:58;12.20;;;6.20;;
5801;SDS011;2927;49.366;8.530;2022-12-07T05:52:23;15.47;;;7.13;;
5801;SDS011;2927;49.366;8.530;2022-12-07T05:54:49;12.23;;;7.30;;
5801;SDS011;2927;49.366;8.530;2022-12-07T05:57:15;16.67;;;8.80;;
5801;SDS011;2927;49.366;8.530;2022-12-07T05:59:41;24.53;;;9.53;;
5801;SDS011;2927;49.366;8.530;2022-12-07T06:02:08;19.53;;;10.00;;
5801;SDS011;2927;49.366;8.530;2022-12-07T06:04:39;21.07;;;9.30;;
5801;SDS011;2927;49.366;8.530;2022-12-07T06:07:07;18.10;;;9.00;;
5801;SDS011;2927;49.366;8.530;2022-12-07T06:09:34;13.50;;;7.17;;
5801;SDS011;2927;49.366;8.530;2022-12-07T06:12:00;14.47;;;6.80;;
5801;SDS011;2927;49.366;8.530;2022-12-07T06:14:45;12.17;;;7.33;;
5801;SDS011;2927;49.366;8.530;2022-12-07T06:17:10;12.83;;;7.13;;
5801;SDS011;2927;49.366;8.530;2022-12-07T06:19:37;11.40;;;6.10;;
5801;SDS011;2927;49.366;8.530;2022-12-07T06:22:03;10.20;;;6.40;;
5801;SDS011;2927;49.366;8.530;2022-12-07T06:24:29;11.23;;;6.77;;
5801;SDS011;2927;49.366;8.530;2022-12-07T06:26:55;12.03;;;6.83;;
5801;SDS011;2927;49.366;8.530;2022-12-07T06:29:21;11.17;;;6.50;;
5801;SDS011;2927;49.366;8.530;2022-12-07T06:31:47;9.67;;;5.87;;
5801;SDS011;2927;49.366;8.530;2022-12-07T06:34:14;10.20;;;6.20;;
5801;SDS011;2927;49.366;8.530;2022-12-07T06:36:41;11.60;;;6.40;;
5801;SDS011;2927;49.366;8.530;2022-12-07T06:39:07;9.77;;;5.57;;
5801;SDS011;2927;49.366;8.530;2022-12-07T06:41:34;9.87;;;6.23;;
5801;SDS011;2927;49.366;8.530;2022-12-07T06:44:01;10.30;;;6.07;;
5801;SDS011;2927;49.366;8.530;2022-12-07T06:46:27;10.53;;;5.20;;
5801;SDS011;2927;49.366;8.530;2022-12-07T06:48:52;10.70;;;6.37;;
5801;SDS011;2927;49.366;8.530;2022-12-07T06:51:18;14.27;;;6.93;;
5801;SDS011;2927;49.366;8.530;2022-12-07T06:53:44;11.33;;;5.80;;
5801;SDS011;2927;49.366;8.530;2022-12-07T06:56:09;11.43;;;6.40;;
5801;SDS011;2927;49.366;8.530;2022-12-07T06:58:35;11.27;;;6.80;;
5801;SDS011;2927;49.366;8.530;2022-12-07T07:01:00;11.00;;;6.17;;
5801;SDS011;2927;49.366;8.530;2022-12-07T07:03:26;13.93;;;6.77;;
5801;SDS011;2927;49.366;8.530;2022-12-07T07:05:51;14.33;;;7.57;;
5801;SDS011;2927;49.366;8.530;2022-12-07T07:08:17;12.33;;;7.40;;
5801;SDS011;2927;49.366;8.530;2022-12-07T07:10:42;20.87;;;7.33;;
5801;SDS011;2927;49.366;8.530;2022-12-07T07:13:08;13.63;;;6.37;;
5801;SDS011;2927;49.366;8.530;2022-12-07T07:15:34;12.10;;;6.57;;
5801;SDS011;2927;49.366;8.530;2022-12-07T07:18:02;18.93;;;7.90;;
5801;SDS011;2927;49.366;8.530;2022-12-07T07:20:29;15.50;;;7.90;;
5801;SDS011;2927;49.366;8.530;2022-12-07T07:22:54;12.73;;;7.50;;
5801;SDS011;2927;49.366;8.530;2022-12-07T07:25:20;14.17;;;7.97;;
5801;SDS011;2927;49.366;8.530;2022-12-07T07:27:49;13.87;;;7.10;;
5801;SDS011;2927;49.366;8.530;2022-12-07T07:30:15;11.97;;;7.07;;
5801;SDS011;2927;49.366;8.530;2022-12-07T07:32:40;13.13;;;6.60;;
5801;SDS011;2927;49.366;8.530;2022-12-07T07:35:06;15.77;;;6.53;;
5801;SDS011;2927;49.366;8.530;2022-12-07T07:37:32;21.37;;;8.47;;
5801;SDS011;2927;49.366;8.530;2022-12-07T07:39:57;14.20;;;8.37;;
5801;SDS011;2927;49.366;8.530;2022-12-07T07:42:23;16.10;;;8.73;;
5801;SDS011;2927;49.366;8.530;2022-12-07T07:44:48;15.93;;;8.00;;
5801;SDS011;2927;49.366;8.530;2022-12-07T07:47:14;14.00;;;7.70;;
5801;SDS011;2927;49.366;8.530;2022-12-07T07:49:39;12.57;;;6.83;;
5801;SDS011;2927;49.366;8.530;2022-12-07T07:52:05;12.10;;;7.80;;
5801;SDS011;2927;49.366;8.530;2022-12-07T07:54:31;16.80;;;8.60;;
5801;SDS011;2927;49.366;8.530;2022-12-07T07:56:56;16.20;;;8.53;;
5801;SDS011;2927;49.366;8.530;2022-12-07T07:59:22;16.17;;;7.10;;
5801;SDS011;2927;49.366;8.530;2022-12-07T08:01:48;12.20;;;7.20;;
5801;SDS011;2927;49.366;8.530;2022-12-07T08:04:13;15.03;;;7.77;;
5801;SDS011;2927;49.366;8.530;2022-12-07T08:06:39;11.37;;;7.07;;
5801;SDS011;2927;49.366;8.530;2022-12-07T08:09:04;14.30;;;7.13;;
5801;SDS011;2927;49.366;8.530;2022-12-07T08:11:31;8.80;;;6.03;;
5801;SDS011;2927;49.366;8.530;2022-12-07T08:13:57;15.00;;;7.60;;
5801;SDS011;2927;49.366;8.530;2022-12-07T08:16:22;15.27;;;7.57;;
5801;SDS011;2927;49.366;8.530;2022-12-07T08:18:48;15.80;;;7.40;;
5801;SDS011;2927;49.366;8.530;2022-12-07T08:21:14;20.67;;;11.90;;
5801;SDS011;2927;49.366;8.530;2022-12-07T08:23:40;9.43;;;6.47;;
5801;SDS011;2927;49.366;8.530;2022-12-07T08:26:08;10.50;;;6.13;;
5801;SDS011;2927;49.366;8.530;2022-12-07T08:28:36;15.00;;;7.80;;
5801;SDS011;2927;49.366;8.530;2022-12-07T08:31:03;13.27;;;5.83;;
5801;SDS011;2927;49.366;8.530;2022-12-07T08:33:33;15.43;;;5.87;;
5801;SDS011;2927;49.366;8.530;2022-12-07T08:36:06;10.53;;;6.47;;
5801;SDS011;2927;49.366;8.530;2022-12-07T08:38:34;11.40;;;6.27;;
5801;SDS011;2927;49.366;8.530;2022-12-07T08:41:00;12.63;;;7.00;;
5801;SDS011;2927;49.366;8.530;2022-12-07T08:43:26;12.53;;;6.17;;
5801;SDS011;2927;49.366;8.530;2022-12-07T08:46:04;14.87;;;7.00;;
5801;SDS011;2927;49.366;8.530;2022-12-07T08:48:34;11.40;;;6.50;;
5801;SDS011;2927;49.366;8.530;2022-12-07T08:51:04;12.70;;;7.03;;
5801;SDS011;2927;49.366;8.530;2022-12-07T08:53:29;17.13;;;7.57;;
5801;SDS011;2927;49.366;8.530;2022-12-07T08:55:56;11.40;;;6.50;;
5801;SDS011;2927;49.366;8.530;2022-12-07T08:58:22;23.43;;;7.10;;
5801;SDS011;2927;49.366;8.530;2022-12-07T09:00:48;15.33;;;7.70;;
5801;SDS011;2927;49.366;8.530;2022-12-07T09:03:13;14.47;;;6.10;;
5801;SDS011;2927;49.366;8.530;2022-12-07T09:05:39;10.67;;;6.80;;
5801;SDS011;2927;49.366;8.530;2022-12-07T09:08:04;9.90;;;7.17;;
5801;SDS011;2927;49.366;8.530;2022-12-07T09:10:31;13.17;;;6.97;;
5801;SDS011;2927;49.366;8.530;2022-12-07T09:12:57;12.67;;;7.30;;
5801;SDS011;2927;49.366;8.530;2022-12-07T09:15:25;9.50;;;6.33;;
5801;SDS011;2927;49.366;8.530;2022-12-07T09:17:54;17.40;;;8.80;;
5801;SDS011;2927;49.366;8.530;2022-12-07T09:20:20;12.87;;;7.13;;
5801;SDS011;2927;49.366;8.530;2022-12-07T09:22:45;13.47;;;6.87;;
5801;SDS011;2927;49.366;8.530;2022-12-07T09:25:11;16.27;;;6.50;;
5801;SDS011;2927;49.366;8.530;2022-12-07T09:27:37;19.10;;;8.00;;
5801;SDS011;2927;49.366;8.530;2022-12-07T09:30:02;13.10;;;6.97;;
5801;SDS011;2927;49.366;8.530;2022-12-07T09:32:29;11.97;;;7.23;;
5801;SDS011;2927;49.366;8.530;2022-12-07T09:34:54;11.27;;;6.33;;
5801;SDS011;2927;49.366;8.530;2022-12-07T09:37:20;10.40;;;6.13;;
5801;SDS011;2927;49.366;8.530;2022-12-07T09:39:46;17.80;;;7.60;;
5801;SDS011;2927;49.366;8.530;2022-12-07T09:42:17;16.90;;;8.57;;
5801;SDS011;2927;49.366;8.530;2022-12-07T09:44:54;15.43;;;7.47;;
5801;SDS011;2927;49.366;8.530;2022-12-07T09:47:20;11.50;;;6.83;;
5801;SDS011;2927;49.366;8.530;2022-12-07T09:49:46;18.00;;;7.90;;
5801;SDS011;2927;49.366;8.530;2022-12-07T09:54:39;12.07;;;6.80;;
5801;SDS011;2927;49.366;8.530;2022-12-07T09:57:10;16.67;;;6.67;;
5801;SDS011;2927;49.366;8.530;2022-12-07T09:59:37;14.20;;;7.70;;
5801;SDS011;2927;49.366;8.530;2022-12-07T10:04:55;17.63;;;8.83;;
5801;SDS011;2927;49.366;8.530;2022-12-07T10:07:22;12.80;;;7.10;;
5801;SDS011;2927;49.366;8.530;2022-12-07T10:09:48;12.23;;;6.97;;
5801;SDS011;2927;49.366;8.530;2022-12-07T10:12:14;13.07;;;6.63;;
5801;SDS011;2927;49.366;8.530;2022-12-07T10:14:48;11.57;;;7.13;;
5801;SDS011;2927;49.366;8.530;2022-12-07T10:17:35;20.03;;;8.30;;
5801;SDS011;2927;49.366;8.530;2022-12-07T10:20:25;20.50;;;7.30;;
5801;SDS011;2927;49.366;8.530;2022-12-07T10:23:02;14.97;;;7.87;;
5801;SDS011;2927;49.366;8.530;2022-12-07T10:25:35;15.07;;;8.30;;
5801;SDS011;2927;49.366;8.530;2022-12-07T10:38:48;16.50;;;7.93;;
5801;SDS011;2927;49.366;8.530;2022-12-07T10:41:15;13.90;;;8.03;;
5801;SDS011;2927;49.366;8.530;2022-12-07T10:43:48;15.50;;;7.40;;
5801;SDS011;2927;49.366;8.530;2022-12-07T10:49:15;12.10;;;6.83;;
5801;SDS011;2927;49.366;8.530;2022-12-07T10:52:07;18.33;;;7.50;;
5801;SDS011;2927;49.366;8.530;2022-12-07T10:55:11;13.80;;;7.77;;
5801;SDS011;2927;49.366;8.530;2022-12-07T11:09:22;12.80;;;7.13;;
5801;SDS011;2927;49.366;8.530;2022-12-07T11:12:12;14.03;;;8.00;;
5801;SDS011;2927;49.366;8.530;2022-12-07T11:17:33;15.73;;;8.00;;
5801;SDS011;2927;49.366;8.530;2022-12-07T11:22:45;17.07;;;8.27;;
5801;SDS011;2927;49.366;8.530;2022-12-07T11:25:35;14.90;;;8.20;;
5801;SDS011;2927;49.366;8.530;2022-12-07T11:31:11;19.23;;;8.50;;
5801;SDS011;2927;49.366;8.530;2022-12-07T11:33:56;18.57;;;8.73;;
5801;SDS011;2927;49.366;8.530;2022-12-07T11:36:40;15.37;;;7.40;;
5801;SDS011;2927;49.366;8.530;2022-12-07T11:39:16;13.20;;;7.10;;
5801;SDS011;2927;49.366;8.530;2022-12-07T11:41:47;8.97;;;5.80;;
5801;SDS011;2927;49.366;8.530;2022-12-07T11:49:53;9.73;;;4.30;;
5801;SDS011;2927;49.366;8.530;2022-12-07T11:55:16;7.30;;;3.67;;
5801;SDS011;2927;49.366;8.530;2022-12-07T11:57:51;3.40;;;2.90;;
5801;SDS011;2927;49.366;8.530;2022-12-07T12:00:25;8.50;;;4.57;;
5801;SDS011;2927;49.366;8.530;2022-12-07T12:02:52;7.77;;;3.77;;
5801;SDS011;2927;49.366;8.530;2022-12-07T12:05:28;5.50;;;3.27;;
5801;SDS011;2927;49.366;8.530;2022-12-07T12:08:09;5.13;;;3.40;;
5801;SDS011;2927;49.366;8.530;2022-12-07T12:13:41;4.90;;;3.07;;
5801;SDS011;2927;49.366;8.530;2022-12-07T12:19:23;5.70;;;3.10;;
5801;SDS011;2927;49.366;8.530;2022-12-07T12:21:57;8.20;;;3.90;;
5801;SDS011;2927;49.366;8.530;2022-12-07T12:24:35;5.87;;;3.20;;
5801;SDS011;2927;49.366;8.530;2022-12-07T12:27:04;6.27;;;2.60;;
5801;SDS011;2927;49.366;8.530;2022-12-07T12:29:35;7.70;;;2.80;;
5801;SDS011;2927;49.366;8.530;2022-12-07T12:34:39;3.60;;;2.03;;
5801;SDS011;2927;49.366;8.530;2022-12-07T12:42:45;3.97;;;2.40;;
5801;SDS011;2927;49.366;8.530;2022-12-07T12:47:52;9.43;;;4.70;;
5801;SDS011;2927;49.366;8.530;2022-12-07T12:50:22;3.17;;;2.70;;
5801;SDS011;2927;49.366;8.530;2022-12-07T12:52:51;13.20;;;2.97;;
5801;SDS011;2927;49.366;8.530;2022-12-07T12:58:38;7.60;;;3.00;;
5801;SDS011;2927;49.366;8.530;2022-12-07T13:04:27;5.77;;;3.13;;
5801;SDS011;2927;49.366;8.530;2022-12-07T13:06:59;5.57;;;3.23;;
5801;SDS011;2927;49.366;8.530;2022-12-07T13:09:28;5.83;;;3.70;;
5801;SDS011;2927;49.366;8.530;2022-12-07T13:12:03;4.17;;;2.30;;
5801;SDS011;2927;49.366;8.530;2022-12-07T13:17:05;4.80;;;2.87;;
5801;SDS011;2927;49.366;8.530;2022-12-07T13:25:07;6.10;;;4.47;;
5801;SDS011;2927;49.366;8.530;2022-12-07T13:27:59;6.23;;;2.83;;
5801;SDS011;2927;49.366;8.530;2022-12-07T13:30:32;8.90;;;3.43;;
5801;SDS011;2927;49.366;8.530;2022-12-07T13:33:11;5.67;;;3.03;;
5801;SDS011;2927;49.366;8.530;2022-12-07T13:35:38;3.37;;;2.40;;
5801;SDS011;2927;49.366;8.530;2022-12-07T13:38:05;4.50;;;2.50;;
5801;SDS011;2927;49.366;8.530;2022-12-07T13:43:44;3.87;;;3.30;;
5801;SDS011;2927;49.366;8.530;2022-12-07T13:46:14;10.67;;;3.63;;
5801;SDS011;2927;49.366;8.530;2022-12-07T13:48:49;6.03;;;3.53;;
5801;SDS011;2927;49.366;8.530;2022-12-07T13:53:50;4.37;;;2.33;;
5801;SDS011;2927;49.366;8.530;2022-12-07T13:56:17;4.37;;;3.40;;
5801;SDS011;2927;49.366;8.530;2022-12-07T13:58:45;8.53;;;5.20;;
5801;SDS011;2927;49.366;8.530;2022-12-07T14:01:11;10.40;;;5.33;;
5801;SDS011;2927;49.366;8.530;2022-12-07T14:03:38;8.67;;;4.93;;
5801;SDS011;2927;49.366;8.530;2022-12-07T14:08:44;25.77;;;7.30;;
5801;SDS011;2927;49.366;8.530;2022-12-07T14:11:28;5.47;;;4.60;;
5801;SDS011;2927;49.366;8.530;2022-12-07T14:13:58;10.10;;;4.93;;
5801;SDS011;2927;49.366;8.530;2022-12-07T14:18:54;12.43;;;5.63;;
5801;SDS011;2927;49.366;8.530;2022-12-07T14:21:23;6.70;;;3.50;;
5801;SDS011;2927;49.366;8.530;2022-12-07T14:26:38;14.93;;;6.27;;
5801;SDS011;2927;49.366;8.530;2022-12-07T14:31:49;17.70;;;7.90;;
5801;SDS011;2927;49.366;8.530;2022-12-07T14:34:15;20.07;;;7.33;;
5801;SDS011;2927;49.366;8.530;2022-12-07T14:36:41;14.13;;;5.30;;
5801;SDS011;2927;49.366;8.530;2022-12-07T14:39:06;6.40;;;4.27;;
5801;SDS011;2927;49.366;8.530;2022-12-07T14:41:32;7.60;;;4.60;;
5801;SDS011;2927;49.366;8.530;2022-12-07T14:44:16;10.27;;;5.43;;
5801;SDS011;2927;49.366;8.530;2022-12-07T14:46:44;16.47;;;6.80;;
5801;SDS011;2927;49.366;8.530;2022-12-07T14:49:10;10.13;;;5.80;;
5801;SDS011;2927;49.366;8.530;2022-12-07T14:51:36;14.40;;;7.73;;
5801;SDS011;2927;49.366;8.530;2022-12-07T14:54:05;15.83;;;5.30;;
5801;SDS011;2927;49.366;8.530;2022-12-07T14:56:32;8.53;;;5.33;;
5801;SDS011;2927;49.366;8.530;2022-12-07T14:58:57;10.93;;;5.83;;
5801;SDS011;2927;49.366;8.530;2022-12-07T15:01:23;10.73;;;5.83;;
5801;SDS011;2927;49.366;8.530;2022-12-07T15:03:48;15.20;;;7.10;;
5801;SDS011;2927;49.366;8.530;2022-12-07T15:06:15;12.73;;;5.67;;
5801;SDS011;2927;49.366;8.530;2022-12-07T15:08:42;14.27;;;7.10;;
5801;SDS011;2927;49.366;8.530;2022-12-07T15:11:18;16.87;;;8.07;;
5801;SDS011;2927;49.366;8.530;2022-12-07T15:13:44;12.77;;;6.20;;
5801;SDS011;2927;49.366;8.530;2022-12-07T15:16:28;8.50;;;5.40;;
5801;SDS011;2927;49.366;8.530;2022-12-07T15:18:54;9.60;;;5.67;;
5801;SDS011;2927;49.366;8.530;2022-12-07T15:21:19;7.60;;;5.20;;
5801;SDS011;2927;49.366;8.530;2022-12-07T15:23:45;9.47;;;5.03;;
5801;SDS011;2927;49.366;8.530;2022-12-07T15:26:12;8.90;;;5.60;;
5801;SDS011;2927;49.366;8.530;2022-12-07T15:28:38;7.83;;;4.63;;
5801;SDS011;2927;49.366;8.530;2022-12-07T15:31:09;9.13;;;5.50;;
5801;SDS011;2927;49.366;8.530;2022-12-07T15:33:36;8.70;;;4.83;;
5801;SDS011;2927;49.366;8.530;2022-12-07T15:36:02;10.57;;;5.23;;
5801;SDS011;2927;49.366;8.530;2022-12-07T15:38:27;17.80;;;8.93;;
5801;SDS011;2927;49.366;8.530;2022-12-07T15:40:55;10.20;;;6.27;;
5801;SDS011;2927;49.366;8.530;2022-12-07T15:43:20;10.70;;;6.27;;
5801;SDS011;2927;49.366;8.530;2022-12-07T15:46:04;12.70;;;6.97;;
5801;SDS011;2927;49.366;8.530;2022-12-07T15:48:30;9.63;;;6.27;;
5801;SDS011;2927;49.366;8.530;2022-12-07T15:51:06;11.37;;;5.13;;
5801;SDS011;2927;49.366;8.530;2022-12-07T15:53:33;18.73;;;8.83;;
5801;SDS011;2927;49.366;8.530;2022-12-07T15:55:59;9.57;;;5.90;;
5801;SDS011;2927;49.366;8.530;2022-12-07T15:58:25;9.53;;;5.00;;
5801;SDS011;2927;49.366;8.530;2022-12-07T16:00:50;8.20;;;5.43;;
5801;SDS011;2927;49.366;8.530;2022-12-07T16:03:16;13.00;;;6.53;;
5801;SDS011;2927;49.366;8.530;2022-12-07T16:05:42;13.03;;;6.87;;
5801;SDS011;2927;49.366;8.530;2022-12-07T16:08:14;8.53;;;5.03;;
5801;SDS011;2927;49.366;8.530;2022-12-07T16:10:39;20.53;;;8.63;;
5801;SDS011;2927;49.366;8.530;2022-12-07T16:13:08;11.17;;;6.87;;
5801;SDS011;2927;49.366;8.530;2022-12-07T16:15:37;9.93;;;6.20;;
5801;SDS011;2927;49.366;8.530;2022-12-07T16:18:03;8.30;;;5.43;;
5801;SDS011;2927;49.366;8.530;2022-12-07T16:20:29;9.87;;;5.63;;
5801;SDS011;2927;49.366;8.530;2022-12-07T16:22:54;15.97;;;7.20;;
5801;SDS011;2927;49.366;8.530;2022-12-07T16:25:20;9.60;;;5.83;;
5801;SDS011;2927;49.366;8.530;2022-12-07T16:27:45;13.43;;;6.30;;
5801;SDS011;2927;49.366;8.530;2022-12-07T16:30:11;13.20;;;6.93;;
5801;SDS011;2927;49.366;8.530;2022-12-07T16:32:38;11.73;;;7.27;;
5801;SDS011;2927;49.366;8.530;2022-12-07T16:35:04;10.10;;;6.10;;
5801;SDS011;2927;49.366;8.530;2022-12-07T16:37:30;14.27;;;5.80;;
5801;SDS011;2927;49.366;8.530;2022-12-07T16:39:55;13.10;;;7.20;;
5801;SDS011;2927;49.366;8.530;2022-12-07T16:42:21;11.77;;;6.93;;
5801;SDS011;2927;49.366;8.530;2022-12-07T16:44:46;14.03;;;8.43;;
5801;SDS011;2927;49.366;8.530;2022-12-07T16:47:12;23.30;;;10.37;;
5801;SDS011;2927;49.366;8.530;2022-12-07T16:49:37;20.10;;;9.20;;
5801;SDS011;2927;49.366;8.530;2022-12-07T16:52:03;20.67;;;10.10;;
5801;SDS011;2927;49.366;8.530;2022-12-07T16:54:29;18.70;;;10.67;;
5801;SDS011;2927;49.366;8.530;2022-12-07T16:56:57;23.53;;;11.63;;
5801;SDS011;2927;49.366;8.530;2022-12-07T16:59:23;26.53;;;11.03;;
5801;SDS011;2927;49.366;8.530;2022-12-07T17:01:48;33.13;;;14.63;;
5801;SDS011;2927;49.366;8.530;2022-12-07T17:04:14;41.63;;;16.07;;
5801;SDS011;2927;49.366;8.530;2022-12-07T17:06:39;46.83;;;19.17;;
5801;SDS011;2927;49.366;8.530;2022-12-07T17:09:05;61.60;;;25.27;;
5801;SDS011;2927;49.366;8.530;2022-12-07T17:11:34;20.13;;;10.13;;
5801;SDS011;2927;49.366;8.530;2022-12-07T17:14:00;16.47;;;9.60;;
5801;SDS011;2927;49.366;8.530;2022-12-07T17:16:44;16.77;;;10.07;;
5801;SDS011;2927;49.366;8.530;2022-12-07T17:19:11;24.30;;;14.37;;
5801;SDS011;2927;49.366;8.530;2022-12-07T17:21:39;21.03;;;10.00;;
5801;SDS011;2927;49.366;8.530;2022-12-07T17:24:05;14.13;;;8.17;;
5801;SDS011;2927;49.366;8.530;2022-12-07T17:26:33;11.93;;;7.30;;
5801;SDS011;2927;49.366;8.530;2022-12-07T17:28:59;15.80;;;8.43;;
5801;SDS011;2927;49.366;8.530;2022-12-07T17:31:24;21.50;;;11.37;;